KTPA/TPA METAR and TAF weather

Enter ICAO airport designator
Station Type Date Time Source
KTPA METAR 2019/08/18 08:53 UTC NOAA

KTPA 180853Z 19008KT 10SM FEW013 BKN075 BKN120 OVC200 26/21 A3005 RMK AO2 SLP175 T02610211 58009 $


Station Type Date Time Source
KTPA Decoded METAR 2019/08/18 08:53 UTC NOAA

Station name not available
Aug 18, 2019 - 04:53 AM EDT / 2019.08.18 0853 UTC
Wind: from the S (190 degrees) at 9 MPH (8 KT):0
Visibility: 10 mile(s):0
Sky conditions: overcast
Temperature: 79.0 F (26.1 C)
Dew Point: 70.0 F (21.1 C)
Relative Humidity: 73%
Pressure (altimeter): 30.05 in. Hg (1017 hPa)
Pressure tendency: 0.03 inches (0.9 hPa) lower than three hours ago
ob: KTPA 180853Z 19008KT 10SM FEW013 BKN075 BKN120 OVC200 26/21 A3005 RMK AO2 SLP175 T02610211 58009
cycle: 9

Station Type Date Time Source
KTPA TAF 2019/08/18 09:58 UTC NOAA

TAF
AMD KTPA 180858Z 1809/1912 16007KT P6SM FEW025 SCT120 BKN200
FM181500 20007KT P6SM VCTS SCT035CB BKN120
FM182000 26007KT P6SM SCT040 BKN250
FM190100 VRB03KT P6SM SCT250

Example: see airport list